createdAt,value
2023-02-27T00:00:28.283Z,68.33
2023-02-27T00:02:55.960Z,68.08
2023-02-27T00:05:23.678Z,68.73
2023-02-27T00:07:51.785Z,68.37
2023-02-27T00:10:19.803Z,68.38
2023-02-27T00:12:48.889Z,68.51
2023-02-27T00:15:18.627Z,69.07
2023-02-27T00:17:47.299Z,69.56
2023-02-27T00:20:17.420Z,69.85
2023-02-27T00:22:45.887Z,69.99
2023-02-27T00:25:15.015Z,69.72
2023-02-27T00:27:43.029Z,69.51
2023-02-27T00:30:14.189Z,70.47
2023-02-27T00:32:42.519Z,70.15
2023-02-27T00:35:12.809Z,70.01
2023-02-27T00:37:41.097Z,70.75
2023-02-27T00:40:15.426Z,71.20
2023-02-27T00:42:43.088Z,70.36
2023-02-27T00:45:12.937Z,70.42
2023-02-27T00:47:40.668Z,71.56
2023-02-27T00:50:10.239Z,71.61
2023-02-27T00:52:37.911Z,70.78
2023-02-27T00:55:06.423Z,71.42
2023-02-27T00:57:34.117Z,72.23
2023-02-27T01:00:01.734Z,71.26
2023-02-27T01:02:30.754Z,71.94
2023-02-27T01:04:58.386Z,72.02
2023-02-27T01:07:26.151Z,71.14
2023-02-27T01:09:54.415Z,71.41
2023-02-27T01:12:21.975Z,71.46
2023-02-27T01:14:49.620Z,72.60
2023-02-27T01:17:18.389Z,72.52
2023-02-27T01:19:47.297Z,73.00
2023-02-27T01:22:15.100Z,72.50
2023-02-27T01:24:43.084Z,72.51
2023-02-27T01:27:10.649Z,72.30
2023-02-27T01:29:38.305Z,71.95
2023-02-27T01:32:05.971Z,73.33
2023-02-27T01:34:34.382Z,72.87
2023-02-27T01:37:04.349Z,73.56
2023-02-27T01:39:32.877Z,73.80
2023-02-27T01:42:00.888Z,72.77
2023-02-27T01:44:31.626Z,74.19
2023-02-27T01:46:59.222Z,74.53
2023-02-27T01:49:30.589Z,74.33
2023-02-27T01:52:03.189Z,73.75
2023-02-27T01:54:36.024Z,74.52
2023-02-27T01:57:06.564Z,74.25
2023-02-27T01:59:34.938Z,74.17
2023-02-27T02:02:05.457Z,73.84
2023-02-27T02:04:37.439Z,75.13
2023-02-27T02:07:08.661Z,75.00
2023-02-27T02:13:57.667Z,74.39
2023-02-27T02:16:42.103Z,74.14
2023-02-27T02:19:41.477Z,75.14
2023-02-27T02:22:49.642Z,75.34
2023-02-27T02:25:45.022Z,75.57
2023-02-27T02:28:29.212Z,74.54
2023-02-27T02:31:26.137Z,76.29
2023-02-27T02:34:23.831Z,76.16
2023-02-27T02:37:30.905Z,76.04
2023-02-27T02:40:11.411Z,75.96
2023-02-27T02:42:45.137Z,75.35
2023-02-27T02:45:18.595Z,74.93
2023-02-27T02:47:59.098Z,75.30
2023-02-27T02:50:34.515Z,75.19
2023-02-27T02:53:09.112Z,75.33
2023-02-27T02:55:41.820Z,75.67
2023-02-27T02:58:15.499Z,75.35
2023-02-27T03:00:48.599Z,75.49
2023-02-27T03:03:24.564Z,76.20
2023-02-27T03:05:57.439Z,75.77
2023-02-27T03:08:33.984Z,75.39
2023-02-27T03:11:05.104Z,75.92
2023-02-27T03:13:39.267Z,75.74
2023-02-27T03:16:14.007Z,75.56
2023-02-27T03:18:48.645Z,75.94
2023-02-27T03:21:22.584Z,75.65
2023-02-27T03:23:53.835Z,75.55
2023-02-27T03:26:29.824Z,76.85
2023-02-27T03:29:02.510Z,76.06
2023-02-27T03:31:38.209Z,75.94
2023-02-27T03:34:14.062Z,76.18
2023-02-27T03:36:47.986Z,77.59
2023-02-27T03:39:25.825Z,77.25
2023-02-27T03:42:03.775Z,76.71
2023-02-27T03:44:59.544Z,76.64
2023-02-27T03:47:28.808Z,76.62
2023-02-27T03:49:57.156Z,77.42
2023-02-27T03:52:27.005Z,76.59
2023-02-27T03:54:59.754Z,77.42
2023-02-27T03:57:29.020Z,76.56
2023-02-27T03:59:56.692Z,76.72
2023-02-27T04:02:24.693Z,78.02
2023-02-27T04:05:01.823Z,77.18
2023-02-27T04:07:55.104Z,77.14
2023-02-27T04:10:51.316Z,77.58
2023-02-27T04:13:54.732Z,77.17
2023-02-27T04:16:46.386Z,76.67
2023-02-27T04:19:23.618Z,76.56
2023-02-27T04:21:59.553Z,76.89
2023-02-27T04:24:37.141Z,76.89
2023-02-27T04:27:15.395Z,76.96
2023-02-27T04:29:54.615Z,77.57
2023-02-27T04:32:30.839Z,76.44
2023-02-27T04:35:01.189Z,76.26
2023-02-27T04:37:34.732Z,76.30
2023-02-27T04:40:06.488Z,76.91
2023-02-27T04:42:39.272Z,76.24
2023-02-27T04:45:15.194Z,76.80
2023-02-27T04:47:50.337Z,76.43
2023-02-27T04:50:22.166Z,76.71
2023-02-27T04:52:54.995Z,76.41
2023-02-27T04:55:27.554Z,76.33
2023-02-27T04:58:00.492Z,76.45
2023-02-27T05:00:32.745Z,76.48
2023-02-27T05:03:06.432Z,76.41
2023-02-27T05:05:37.860Z,76.64
2023-02-27T05:08:10.852Z,76.55
2023-02-27T05:10:45.382Z,76.45
2023-02-27T05:13:16.089Z,77.10
2023-02-27T05:15:48.099Z,76.44
2023-02-27T05:18:18.920Z,77.51
2023-02-27T05:20:54.938Z,76.75
2023-02-27T05:23:31.339Z,77.17
2023-02-27T05:26:03.172Z,75.92
2023-02-27T05:28:37.846Z,75.96
2023-02-27T05:31:16.166Z,76.16
2023-02-27T05:33:48.535Z,76.40
2023-02-27T05:36:21.538Z,76.87
2023-02-27T05:38:53.514Z,77.27
2023-02-27T05:41:27.542Z,76.86
2023-02-27T05:43:58.976Z,76.46
2023-02-27T05:46:31.688Z,76.41
2023-02-27T05:49:04.822Z,76.25
2023-02-27T05:51:34.505Z,76.23
2023-02-27T05:54:07.075Z,76.08
2023-02-27T05:56:37.773Z,77.00
2023-02-27T05:59:10.055Z,76.48
2023-02-27T06:01:39.236Z,76.27
2023-02-27T06:04:06.842Z,76.64
2023-02-27T06:06:36.946Z,76.18
2023-02-27T06:09:04.829Z,75.15
2023-02-27T06:11:32.410Z,75.51
2023-02-27T06:13:59.996Z,75.97
2023-02-27T06:16:28.044Z,75.51
2023-02-27T06:18:57.163Z,76.62
2023-02-27T06:21:24.743Z,75.52
2023-02-27T06:23:52.286Z,75.83
2023-02-27T06:26:19.887Z,75.65
2023-02-27T06:28:47.431Z,75.19
2023-02-27T06:31:15.013Z,76.11
2023-02-27T06:33:42.647Z,75.58
2023-02-27T06:36:11.554Z,75.06
2023-02-27T06:38:39.166Z,75.97
2023-02-27T06:41:07.421Z,75.46
2023-02-27T06:43:36.914Z,75.11
2023-02-27T06:46:04.596Z,75.45
2023-02-27T06:48:32.284Z,75.47
2023-02-27T06:51:00.230Z,76.50
2023-02-27T06:53:29.109Z,76.07
2023-02-27T06:55:56.622Z,75.61
2023-02-27T06:58:25.241Z,74.70
2023-02-27T07:00:52.852Z,75.09
2023-02-27T07:03:20.419Z,75.00
2023-02-27T07:05:48.032Z,74.10
2023-02-27T07:08:17.466Z,74.00
2023-02-27T07:10:48.871Z,74.88
2023-02-27T07:13:19.397Z,74.87
2023-02-27T07:15:47.815Z,73.78
2023-02-27T07:18:15.385Z,74.45
2023-02-27T07:20:43.010Z,73.44
2023-02-27T07:23:10.667Z,73.38
2023-02-27T07:25:38.217Z,73.66
2023-02-27T07:28:07.394Z,72.85
2023-02-27T07:30:35.189Z,73.08
2023-02-27T07:33:03.128Z,72.39
2023-02-27T07:35:30.837Z,72.61
2023-02-27T07:37:58.411Z,73.26
2023-02-27T07:40:26.109Z,72.21
2023-02-27T07:42:53.649Z,72.42
2023-02-27T07:45:24.405Z,72.33
2023-02-27T07:47:52.019Z,71.34
2023-02-27T07:50:19.683Z,71.46
2023-02-27T07:52:47.207Z,70.25
2023-02-27T07:55:15.379Z,70.90
2023-02-27T07:57:42.983Z,70.40
2023-02-27T08:00:11.917Z,70.95
2023-02-27T08:02:40.962Z,70.48
2023-02-27T08:05:09.442Z,69.80
2023-02-27T08:07:37.529Z,69.18
2023-02-27T08:10:05.533Z,69.39
2023-02-27T08:12:33.279Z,69.69
2023-02-27T08:15:00.857Z,69.38
2023-02-27T08:17:28.481Z,68.67
2023-02-27T08:19:57.346Z,67.30
2023-02-27T08:22:24.957Z,68.02
2023-02-27T08:24:52.536Z,67.98
2023-02-27T08:27:20.079Z,67.40
2023-02-27T08:29:47.657Z,67.30
2023-02-27T08:32:15.377Z,66.35
2023-02-27T08:34:42.999Z,66.46
2023-02-27T08:37:11.953Z,65.57
2023-02-27T08:39:39.477Z,66.52
2023-02-27T08:42:07.583Z,64.99
2023-02-27T08:44:35.568Z,64.90
2023-02-27T08:47:03.157Z,64.03
2023-02-27T08:49:30.748Z,64.30
2023-02-27T08:51:58.578Z,87.23
2023-02-27T08:54:27.571Z,70.79
2023-02-27T08:56:55.138Z,66.16
2023-02-27T08:59:22.680Z,78.76
2023-02-27T09:01:50.492Z,62.96
2023-02-27T09:04:18.082Z,60.60
2023-02-27T09:06:45.653Z,59.23
2023-02-27T09:09:13.391Z,58.85
2023-02-27T09:11:42.378Z,59.31
2023-02-27T09:14:09.960Z,59.06
2023-02-27T09:16:37.578Z,59.01
2023-02-27T09:19:05.453Z,56.96
2023-02-27T09:21:33.247Z,56.96
2023-02-27T09:24:10.138Z,56.70
2023-02-27T09:26:46.854Z,56.49
2023-02-27T09:29:14.821Z,56.36
2023-02-27T09:31:42.522Z,57.50
2023-02-27T09:34:10.299Z,59.04
2023-02-27T09:36:37.896Z,55.42
2023-02-27T09:39:05.528Z,54.60
2023-02-27T09:41:51.374Z,54.51
2023-02-27T09:44:43.452Z,54.79
2023-02-27T09:47:17.768Z,52.52
2023-02-27T09:49:57.046Z,54.05
2023-02-27T09:52:24.661Z,53.67
2023-02-27T09:54:54.081Z,54.68
2023-02-27T09:57:33.732Z,52.03
2023-02-27T10:00:07.929Z,51.79
2023-02-27T10:02:47.893Z,50.58
2023-02-27T10:05:26.175Z,50.93
2023-02-27T10:08:02.228Z,51.43
2023-02-27T10:10:39.161Z,50.83
2023-02-27T10:13:29.693Z,49.49
2023-02-27T10:15:59.652Z,48.71
2023-02-27T10:18:31.677Z,49.15
2023-02-27T10:21:02.690Z,49.33
2023-02-27T10:23:37.051Z,48.69
2023-02-27T10:26:05.674Z,49.25
2023-02-27T10:28:35.153Z,48.24
2023-02-27T10:31:03.751Z,47.16
2023-02-27T10:33:36.484Z,49.46
2023-02-27T10:36:12.451Z,47.90
2023-02-27T10:38:47.452Z,47.39
2023-02-27T10:41:17.224Z,46.31
2023-02-27T10:43:46.342Z,45.89
2023-02-27T10:46:16.103Z,45.83
2023-02-27T10:48:43.790Z,45.73
2023-02-27T10:51:25.261Z,45.64
2023-02-27T10:54:17.992Z,46.22
2023-02-27T10:56:48.643Z,45.02
2023-02-27T10:59:22.948Z,46.48
2023-02-27T11:01:54.351Z,44.50
2023-02-27T11:04:27.764Z,44.74
2023-02-27T11:06:55.961Z,43.25
2023-02-27T11:09:25.789Z,42.44
2023-02-27T11:11:54.402Z,43.27
2023-02-27T11:14:29.483Z,43.25
2023-02-27T11:16:58.943Z,42.58
2023-02-27T11:19:33.326Z,43.59
2023-02-27T11:22:03.204Z,43.53
2023-02-27T11:24:31.149Z,43.21
2023-02-27T11:27:00.035Z,42.82
2023-02-27T11:29:29.256Z,43.72
2023-02-27T11:32:00.952Z,43.05
2023-02-27T11:34:32.619Z,43.17
2023-02-27T11:37:02.918Z,42.85
2023-02-27T11:39:35.017Z,42.63
2023-02-27T11:42:19.546Z,42.67
2023-02-27T11:44:54.441Z,42.16
2023-02-27T11:47:28.214Z,41.13
2023-02-27T11:50:11.201Z,41.03
2023-02-27T11:52:47.382Z,40.33
2023-02-27T11:55:18.048Z,39.19
2023-02-27T11:57:50.618Z,39.18
2023-02-27T12:00:26.147Z,38.42
2023-02-27T12:03:01.524Z,39.21
2023-02-27T12:05:32.829Z,38.18
2023-02-27T12:08:05.631Z,38.04
2023-02-27T12:10:44.903Z,36.19
2023-02-27T12:13:16.598Z,37.04
2023-02-27T12:15:49.006Z,36.67
2023-02-27T12:18:21.007Z,36.16
2023-02-27T12:20:55.229Z,36.39
2023-02-27T12:23:30.110Z,34.81
2023-02-27T12:26:03.622Z,34.81
2023-02-27T12:28:44.844Z,35.00
2023-02-27T12:31:32.278Z,34.39
2023-02-27T12:34:04.820Z,35.16
2023-02-27T12:36:32.519Z,34.67
2023-02-27T12:39:00.209Z,32.68
2023-02-27T12:41:36.903Z,31.89
2023-02-27T12:44:19.584Z,31.91
2023-02-27T12:46:53.416Z,31.32
2023-02-27T12:49:36.806Z,32.12
2023-02-27T12:52:16.387Z,31.40
2023-02-27T12:54:54.960Z,32.31
2023-02-27T12:57:49.222Z,32.10
2023-02-27T13:00:19.920Z,33.48
2023-02-27T13:02:55.077Z,33.71
2023-02-27T13:05:46.762Z,33.42
2023-02-27T13:08:23.621Z,34.32
2023-02-27T13:10:58.571Z,33.69
2023-02-27T13:13:32.966Z,33.39
2023-02-27T13:16:05.173Z,32.41
2023-02-27T13:18:45.324Z,32.50
2023-02-27T13:21:20.212Z,32.02
2023-02-27T13:24:03.762Z,32.43
2023-02-27T13:26:36.465Z,31.86
2023-02-27T13:29:05.081Z,32.09
2023-02-27T13:31:40.765Z,31.48
2023-02-27T13:34:17.968Z,31.56
2023-02-27T13:36:49.976Z,32.55
2023-02-27T13:39:40.702Z,30.49
2023-02-27T13:42:41.797Z,29.97
2023-02-27T13:45:49.375Z,29.41
2023-02-27T13:48:49.066Z,28.70
2023-02-27T13:51:44.902Z,28.38
2023-02-27T13:54:26.306Z,29.37
2023-02-27T13:57:19.739Z,29.89
2023-02-27T13:59:54.496Z,29.67
2023-02-27T14:02:57.933Z,29.29
2023-02-27T14:05:31.004Z,28.89
2023-02-27T14:08:06.145Z,28.33
2023-02-27T14:10:34.750Z,27.27
2023-02-27T14:13:03.657Z,26.31
2023-02-27T14:15:55.301Z,25.88
2023-02-27T14:18:53.001Z,25.95
2023-02-27T14:21:58.974Z,25.47
2023-02-27T14:24:36.409Z,25.84
2023-02-27T14:27:05.828Z,24.96
2023-02-27T14:29:35.810Z,25.73
2023-02-27T14:32:08.311Z,27.35
2023-02-27T14:34:37.172Z,27.93
2023-02-27T14:37:11.203Z,28.05
2023-02-27T14:39:41.417Z,27.87
2023-02-27T14:42:35.238Z,27.50
2023-02-27T14:45:03.243Z,27.13
2023-02-27T14:47:35.788Z,26.94
2023-02-27T14:50:05.537Z,26.66
2023-02-27T14:52:41.517Z,27.48
2023-02-27T14:55:18.367Z,26.50
2023-02-27T14:57:57.339Z,26.60
2023-02-27T15:00:33.619Z,27.71
2023-02-27T15:03:01.998Z,28.42
2023-02-27T15:05:34.866Z,29.46
2023-02-27T15:08:02.692Z,30.10
2023-02-27T15:10:33.258Z,30.90
2023-02-27T15:13:02.663Z,31.20
2023-02-27T15:15:31.832Z,32.17
2023-02-27T15:18:00.933Z,31.67
2023-02-27T15:20:30.605Z,31.50
2023-02-27T15:22:58.557Z,31.21
2023-02-27T15:25:29.138Z,31.34
2023-02-27T15:28:03.213Z,31.86
2023-02-27T15:30:31.978Z,33.60
2023-02-27T15:33:02.744Z,35.54
2023-02-27T15:35:36.458Z,37.44
2023-02-27T15:38:04.978Z,35.10
2023-02-27T15:40:36.124Z,36.40
2023-02-27T15:43:05.577Z,37.22
2023-02-27T15:45:35.768Z,37.02
2023-02-27T15:48:04.426Z,37.24
2023-02-27T15:50:34.522Z,38.65
2023-02-27T15:53:06.308Z,38.46
2023-02-27T15:55:38.299Z,40.36
2023-02-27T15:58:20.956Z,39.65
2023-02-27T16:00:49.814Z,39.67
2023-02-27T16:03:24.209Z,38.91
2023-02-27T16:05:53.484Z,39.30
2023-02-27T16:08:22.070Z,40.72
2023-02-27T16:10:51.631Z,40.25
2023-02-27T16:13:35.752Z,40.58
2023-02-27T16:16:05.700Z,39.73
2023-02-27T16:18:35.533Z,41.68
2023-02-27T16:21:12.590Z,40.86
2023-02-27T16:23:40.294Z,41.59
2023-02-27T16:26:23.919Z,41.43
2023-02-27T16:28:53.892Z,41.78
2023-02-27T16:31:31.530Z,41.65
2023-02-27T16:34:01.933Z,42.26
2023-02-27T16:36:31.709Z,41.80
2023-02-27T16:38:59.326Z,42.18
2023-02-27T16:41:28.486Z,41.97
2023-02-27T16:43:57.397Z,61.24
2023-02-27T16:46:24.979Z,47.95
2023-02-27T16:48:54.245Z,44.14
2023-02-27T16:51:24.123Z,42.86
2023-02-27T16:53:52.161Z,42.22
2023-02-27T16:56:32.226Z,43.47
2023-02-27T16:59:06.468Z,43.21
2023-02-27T17:01:34.600Z,43.54
2023-02-27T17:04:05.252Z,44.09
2023-02-27T17:06:36.361Z,44.48
2023-02-27T17:09:04.696Z,43.49
2023-02-27T17:15:46.984Z,43.32
2023-02-27T17:18:14.864Z,43.81
2023-02-27T17:20:42.484Z,43.34
2023-02-27T17:23:13.448Z,43.77
2023-02-27T17:25:42.192Z,44.12
2023-02-27T17:28:10.183Z,43.68
2023-02-27T17:30:37.960Z,43.93
2023-02-27T17:33:06.903Z,43.83
2023-02-27T17:35:34.548Z,44.75
2023-02-27T17:38:02.159Z,44.92
2023-02-27T17:40:29.920Z,44.21
2023-02-27T17:42:57.591Z,44.80
2023-02-27T17:45:27.098Z,44.78
2023-02-27T17:47:55.056Z,44.63
2023-02-27T17:50:23.976Z,45.60
2023-02-27T17:52:51.632Z,45.45
2023-02-27T17:55:19.503Z,44.88
2023-02-27T17:57:47.146Z,45.43
2023-02-27T18:00:16.117Z,45.65
2023-02-27T18:02:45.378Z,45.75
2023-02-27T18:05:13.057Z,45.66
2023-02-27T18:07:42.161Z,45.29
2023-02-27T18:10:13.963Z,45.88
2023-02-27T18:12:41.546Z,45.96
2023-02-27T18:15:10.356Z,45.62
2023-02-27T18:17:38.153Z,45.86
2023-02-27T18:20:06.594Z,45.83
2023-02-27T18:22:34.214Z,45.39
2023-02-27T18:25:03.230Z,45.93
2023-02-27T18:27:30.821Z,46.01
2023-02-27T18:29:59.066Z,46.19
2023-02-27T18:32:27.068Z,46.93
2023-02-27T18:34:54.648Z,46.82
2023-02-27T18:37:22.304Z,46.66
2023-02-27T18:39:49.854Z,46.73
2023-02-27T18:42:18.774Z,46.99
2023-02-27T18:44:47.564Z,47.59
2023-02-27T18:47:15.157Z,46.45
2023-02-27T18:49:42.794Z,47.07
2023-02-27T18:52:10.529Z,47.29
2023-02-27T18:54:38.151Z,47.09
2023-02-27T18:57:05.946Z,46.87
2023-02-27T18:59:34.934Z,47.19
2023-02-27T19:02:02.468Z,47.42
2023-02-27T19:04:33.009Z,47.88
2023-02-27T19:07:00.544Z,48.09
2023-02-27T19:09:32.623Z,47.99
2023-02-27T19:12:00.421Z,47.78
2023-02-27T19:14:27.989Z,47.83
2023-02-27T19:17:00.250Z,48.78
2023-02-27T19:19:28.774Z,48.77
2023-02-27T19:21:56.721Z,48.69
2023-02-27T19:24:24.846Z,49.27
2023-02-27T19:26:53.522Z,49.02
2023-02-27T19:29:21.483Z,49.91
2023-02-27T19:31:49.258Z,49.77
2023-02-27T19:34:18.233Z,49.52
2023-02-27T19:36:45.818Z,50.24
2023-02-27T19:39:13.407Z,50.01
2023-02-27T19:41:40.977Z,51.08
2023-02-27T19:44:09.136Z,50.42
2023-02-27T19:46:36.827Z,50.92
2023-02-27T19:49:06.661Z,51.51
2023-02-27T19:51:35.714Z,51.46
2023-02-27T19:54:03.640Z,51.19
2023-02-27T19:56:31.936Z,57.58
2023-02-27T19:59:01.667Z,53.04
2023-02-27T20:01:32.424Z,52.06
2023-02-27T20:04:01.115Z,51.82
2023-02-27T20:06:30.795Z,52.64
2023-02-27T20:09:00.895Z,52.37
2023-02-27T20:11:30.671Z,52.28
2023-02-27T20:13:58.856Z,53.00
2023-02-27T20:16:28.264Z,52.49
2023-02-27T20:18:56.189Z,53.29
2023-02-27T20:21:26.509Z,52.99
2023-02-27T20:23:55.018Z,53.06
2023-02-27T20:26:27.916Z,53.31
2023-02-27T20:28:59.441Z,53.83
2023-02-27T20:31:29.406Z,53.96
2023-02-27T20:34:00.181Z,54.13
2023-02-27T20:36:28.214Z,60.22
2023-02-27T20:38:56.331Z,54.78
2023-02-27T20:41:29.460Z,52.81
2023-02-27T20:43:57.502Z,50.15
2023-02-27T20:46:27.919Z,50.22
2023-02-27T20:48:57.609Z,50.14
2023-02-27T20:51:26.418Z,50.12
2023-02-27T20:53:56.833Z,49.74
2023-02-27T20:56:30.153Z,48.91
2023-02-27T20:58:59.557Z,48.42
2023-02-27T21:01:28.351Z,48.70
2023-02-27T21:03:58.281Z,48.36
2023-02-27T21:06:26.081Z,48.06
2023-02-27T21:08:55.755Z,48.28
2023-02-27T21:11:28.070Z,48.47
2023-02-27T21:13:56.595Z,48.66
2023-02-27T21:16:25.537Z,48.93
2023-02-27T21:18:53.148Z,49.66
2023-02-27T21:21:24.350Z,49.82
2023-02-27T21:23:52.401Z,49.61
2023-02-27T21:26:24.625Z,50.44
2023-02-27T21:28:55.116Z,50.38
2023-02-27T21:31:25.385Z,50.26
2023-02-27T21:33:54.280Z,51.17
2023-02-27T21:36:26.390Z,50.99
2023-02-27T21:38:57.909Z,51.34
2023-02-27T21:41:25.490Z,51.42
2023-02-27T21:43:58.397Z,52.46
2023-02-27T21:46:26.075Z,53.64
2023-02-27T21:48:53.898Z,53.55
2023-02-27T21:51:38.238Z,55.04
2023-02-27T21:54:08.989Z,54.58
2023-02-27T21:56:36.518Z,55.97
2023-02-27T21:59:05.775Z,56.28
2023-02-27T22:01:34.108Z,56.99
2023-02-27T22:04:02.193Z,57.16
2023-02-27T22:06:31.871Z,57.47
2023-02-27T22:09:01.444Z,57.90
2023-02-27T22:11:30.395Z,57.91
2023-02-27T22:13:58.465Z,59.11
2023-02-27T22:16:27.641Z,59.36
2023-02-27T22:18:55.200Z,60.02
2023-02-27T22:21:25.137Z,60.75
2023-02-27T22:23:53.352Z,62.61
2023-02-27T22:26:24.010Z,62.17
2023-02-27T22:28:52.009Z,62.17
2023-02-27T22:31:21.425Z,61.86
2023-02-27T22:33:52.889Z,61.85
2023-02-27T22:36:22.418Z,62.39
2023-02-27T22:38:50.361Z,62.24
2023-02-27T22:41:21.409Z,62.61
2023-02-27T22:43:49.336Z,62.51
2023-02-27T22:46:18.811Z,63.03
2023-02-27T22:48:46.348Z,64.46
2023-02-27T22:51:16.307Z,63.88
2023-02-27T22:53:45.935Z,64.71
2023-02-27T22:56:15.496Z,65.16
2023-02-27T22:58:44.438Z,65.14
2023-02-27T23:01:13.729Z,64.91
2023-02-27T23:03:42.181Z,65.39
2023-02-27T23:06:11.706Z,65.22
2023-02-27T23:08:40.980Z,66.10
2023-02-27T23:11:11.304Z,66.54
2023-02-27T23:13:39.235Z,66.98
2023-02-27T23:16:11.534Z,66.02
2023-02-27T23:18:39.648Z,70.25
2023-02-27T23:21:07.950Z,75.96
2023-02-27T23:23:35.907Z,68.04
2023-02-27T23:26:06.518Z,67.59
2023-02-27T23:28:36.562Z,67.36
2023-02-27T23:31:04.857Z,67.30
2023-02-27T23:33:33.076Z,68.16
2023-02-27T23:36:00.841Z,68.28
2023-02-27T23:38:29.309Z,67.36
2023-02-27T23:40:57.350Z,66.94
2023-02-27T23:43:26.268Z,67.78
2023-02-27T23:45:53.963Z,67.14
2023-02-27T23:48:21.901Z,71.08
2023-02-27T23:50:49.672Z,67.70
2023-02-27T23:53:17.404Z,68.15
2023-02-27T23:55:44.969Z,68.01
2023-02-27T23:58:12.491Z,68.29
